Аэропорт: Основа. Харьков

ICAO: UKHH

METAR:
Информация по данной станции не доступна
METAR:
2020-05-31 11:08:00
TAF UKHH 311108Z 3112/0112 20007G12MPS 9999 SCT020CB BKN030 TEMPO 3112/3115 22009G16MPS 0800 +TSRAGR BKN007 BKN015CB PROB40 TEMPO 3115/3118 22009G16MPS 1500 TSRAGR BKN005 BKN015CB BECMG 3118/3120 20003MPS 2100 BR BKN007 SCT017CB TEMPO 0108/0112 17008G13MPS -TSRA BKN015CB